To NAV CANADA Home Page Login to a new session Search on AWWS site Disclaimer Vers la page française équivalente Tips FAQ What's new on the site To the Forecasts and Observations / NOTAM section To "File a Flight Plan" website Publications and other links Update of the User's profile FIC Telephone Numbers My Weather Data Folder Route Weather Data Regional Weather Data Local Weather Data To the Forecasts and Observations / NOTAM section
Request Generated 10/27/2020 at 09:15:52 UTC . Weather information available at that time is displayed.

METAR/TAF

KITCHENER/WATERLOO/ON    (show WxCam)

METAR CYKF 270900Z AUTO 00000KT 9SM OVC028 04/03 A3021 RMK SLP241=
METAR CYKF 270800Z AUTO VRB02KT 9SM BKN030 OVC037 04/03 A3022 RMK SLP244=
METAR CYKF 270700Z AUTO 29003KT 9SM SCT028 BKN036 OVC100 04/02 A3023 RMK SLP245=

TAF CYKF 270739Z 2708/2720 29005KT P6SM BKN030 OVC100 TEMPO 2708/2709
BKN020 OVC100 PROB30 2708/2709 1SM BR
FM270900 VRB03KT P6SM BKN015 BKN100 TEMPO 2709/2715 SCT015 BKN100
PROB30 2709/2713 1SM BR
FM271500 14005KT P6SM BKN015 OVC060 TEMPO 2715/2717 SCT015 OVC050
FM271700 25012KT 4SM -SHRA BR FEW008 BKN020 OVC030
RMK FCST BASED ON AUTO OBS. NXT FCST BY 271400Z=

LONDON/ON    

METAR CYXU 270900Z 23005KT 15SM OVC110 04/03 A3023 RMK AC8 SLP245=
METAR CYXU 270800Z 25004KT 15SM OVC100 04/03 A3023 RMK AC8 SLP246=
METAR CYXU 270700Z 25005KT 15SM OVC110 04/02 A3023 RMK AC8 SLP247=

TAF CYXU 270538Z 2706/2806 28005KT P6SM FEW030 OVC100
FM270900 29005KT P6SM BKN015 BKN080 TEMPO 2709/2713 SCT015 BKN080
PROB30 2709/2713 3/4SM BR BKN004
FM271300 25010KT P6SM SCT020 BKN080 TEMPO 2713/2716 BKN020 BKN080
FM271700 25010KT P6SM -SHRA FEW008 SCT020 OVC030
FM272200 24008KT P6SM SCT008 BKN020 BKN050
RMK NXT FCST BY 271200Z=

HAMILTON/ON    

METAR CYHM 270900Z 25004KT 15SM FEW018 OVC110 04/03 A3022 RMK SC1AC8 SC TR SLP243=
METAR CYHM 270800Z 26003KT 15SM FEW018 OVC110 04/03 A3023 RMK SC1AC8 SC TR SLP244=
METAR CYHM 270700Z 27004KT 15SM FEW038 FEW120 04/03 A3023 RMK SC1AC2 SC TR SLP245=

TAF CYHM 270538Z 2706/2806 VRB03KT P6SM FEW040 BKN100 TEMPO 2706/2709
BKN020 BKN060
FM270900 25005KT P6SM BKN012 BKN080 TEMPO 2709/2714 FEW012 SCT080
PROB30 2709/2713 1SM BR BKN004
FM271400 VRB03KT P6SM BKN015 OVC060
FM271800 25012KT P6SM -SHRA FEW008 SCT020 OVC030
FM272200 25012KT P6SM BKN015 OVC030
RMK NXT FCST BY 271200Z=
Your time UTC time
Weather data provided by Environment Canada and NAV CANADA